Time;durP1;ratioP1;P1;durP2;ratioP2;P2;SDS_P1;SDS_P2;PMS_P1;PMS_P2;Temp;Humidity;BMP_temperature;BMP_pressure;BME280_temperature;BME280_humidity;BME280_pressure;Samples;Min_cycle;Max_cycle;Signal;HPM_P1;HPM_P2
2023/12/30 00:02:14;;;;;;;24.95;23.13;;;;;;;3.07;100.00;101466.44;4959602;28;20061;-57
2023/12/30 00:04:41;;;;;;;27.98;25.88;;;;;;;3.02;100.00;101464.22;4955576;28;20520;-58
2023/12/30 00:07:08;;;;;;;25.77;23.77;;;;;;;2.96;100.00;101459.50;4964717;28;20410;-57
2023/12/30 00:09:34;;;;;;;24.38;22.67;;;;;;;2.94;100.00;101453.59;4961723;28;20047;-58
2023/12/30 00:12:03;;;;;;;26.70;24.85;;;;;;;2.96;100.00;101457.72;4959369;28;20043;-58
2023/12/30 00:14:30;;;;;;;26.52;24.63;;;;;;;3.04;100.00;101456.22;4960226;28;20130;-58
2023/12/30 00:16:58;;;;;;;24.27;22.38;;;;;;;2.44;100.00;101458.91;4958693;28;20492;-57
2023/12/30 00:19:24;;;;;;;24.10;22.20;;;;;;;2.71;100.00;101463.50;4956731;28;20062;-57
2023/12/30 00:21:53;;;;;;;25.08;23.23;;;;;;;2.58;100.00;101455.09;4963909;28;20057;-57
2023/12/30 00:24:20;;;;;;;24.73;22.88;;;;;;;2.45;100.00;101461.41;4959630;28;20061;-62
2023/12/30 00:26:47;;;;;;;24.65;22.85;;;;;;;2.69;100.00;101452.31;4961357;28;20433;-63
2023/12/30 00:29:15;;;;;;;26.90;24.75;;;;;;;3.39;100.00;101455.63;4959681;28;20154;-64
2023/12/30 00:31:42;;;;;;;25.48;23.67;;;;;;;2.94;100.00;101457.03;4955585;28;20445;-64
2023/12/30 00:34:09;;;;;;;26.42;24.48;;;;;;;2.79;100.00;101455.78;4958320;28;20058;-64
2023/12/30 00:36:35;;;;;;;26.38;24.48;;;;;;;2.99;100.00;101464.47;4957843;28;20065;-64
2023/12/30 00:39:03;;;;;;;25.05;23.15;;;;;;;2.72;100.00;101458.16;4956956;28;20051;-63
2023/12/30 00:41:30;;;;;;;26.23;24.33;;;;;;;2.84;100.00;101460.63;4963581;28;21015;-63
2023/12/30 00:43:57;;;;;;;25.70;23.17;;;;;;;2.93;100.00;101451.91;4962494;28;20047;-64
2023/12/30 00:46:25;;;;;;;25.35;23.55;;;;;;;2.94;100.00;101457.03;4960505;28;20469;-64
2023/12/30 00:48:52;;;;;;;24.95;23.15;;;;;;;2.97;100.00;101450.69;4959215;28;20449;-63
2023/12/30 00:51:19;;;;;;;26.75;24.85;;;;;;;3.09;100.00;101449.59;4958708;28;20061;-63
2023/12/30 00:53:46;;;;;;;25.98;24.08;;;;;;;4.04;100.00;101446.00;4959499;28;20445;-64
2023/12/30 00:56:13;;;;;;;24.95;23.17;;;;;;;3.20;100.00;101459.09;4965586;28;20047;-64
2023/12/30 00:58:39;;;;;;;22.73;21.02;;;;;;;3.14;100.00;101455.22;4952665;28;20050;-64
2023/12/30 01:01:08;;;;;;;24.10;22.40;;;;;;;2.92;100.00;101451.09;4960440;28;20058;-64
2023/12/30 01:03:36;;;;;;;25.80;23.90;;;;;;;2.74;100.00;101443.06;4958983;28;20066;-63
2023/12/30 01:06:03;;;;;;;25.50;23.67;;;;;;;3.04;100.00;101448.34;4962894;28;20383;-64
2023/12/30 01:08:30;;;;;;;25.42;23.63;;;;;;;3.19;100.00;101447.75;4958170;28;20481;-63
2023/12/30 01:10:57;;;;;;;25.15;23.45;;;;;;;3.05;100.00;101442.94;4962585;28;20051;-58
2023/12/30 01:13:24;;;;;;;28.67;26.45;;;;;;;2.70;100.00;101435.63;4963058;28;20085;-63
2023/12/30 01:15:50;;;;;;;26.52;24.38;;;;;;;2.74;100.00;101437.81;4958765;28;20405;-57
2023/12/30 01:18:18;;;;;;;22.70;20.85;;;;;;;2.53;100.00;101432.69;4956832;28;20425;-58
2023/12/30 01:20:46;;;;;;;24.50;22.70;;;;;;;2.75;100.00;101422.91;4959483;28;20070;-58
2023/12/30 01:23:13;;;;;;;25.60;23.70;;;;;;;2.96;100.00;101428.84;4964594;28;20063;-58
2023/12/30 01:25:42;;;;;;;24.77;22.67;;;;;;;2.45;100.00;101426.47;4962039;28;20055;-57
2023/12/30 01:28:08;;;;;;;23.63;21.92;;;;;;;3.14;100.00;101417.66;4957837;28;20660;-57
2023/12/30 01:30:37;;;;;;;25.10;23.15;;;;;;;3.46;100.00;101419.13;4958889;28;20436;-58
2023/12/30 01:33:05;;;;;;;25.15;23.05;;;;;;;2.86;100.00;101421.97;4956485;28;20054;-64
2023/12/30 01:35:31;;;;;;;25.02;23.23;;;;;;;2.93;100.00;101416.00;4961540;28;20051;-64
2023/12/30 01:38:00;;;;;;;25.90;23.90;;;;;;;2.80;100.00;101410.22;4957990;28;20051;-63
2023/12/30 01:40:27;;;;;;;26.50;24.50;;;;;;;2.74;100.00;101416.84;4957892;28;20062;-58
2023/12/30 01:42:54;;;;;;;27.25;25.35;;;;;;;3.12;100.00;101412.56;4962476;28;20470;-58
2023/12/30 01:45:21;;;;;;;26.77;24.77;;;;;;;3.03;100.00;101407.31;4959649;28;20114;-58
2023/12/30 01:47:47;;;;;;;26.10;24.20;;;;;;;2.91;100.00;101404.00;4963597;28;20044;-57
2023/12/30 01:50:14;;;;;;;24.42;22.63;;;;;;;2.36;100.00;101395.81;4957519;28;20055;-57
2023/12/30 01:52:41;;;;;;;24.58;22.67;;;;;;;2.56;100.00;101397.50;4957656;28;20058;-57
2023/12/30 01:55:10;;;;;;;25.98;24.08;;;;;;;2.56;100.00;101396.69;4966508;28;20051;-63
2023/12/30 01:57:37;;;;;;;24.40;22.23;;;;;;;2.62;100.00;101394.34;4959007;28;20043;-59
2023/12/30 02:00:05;;;;;;;24.00;22.30;;;;;;;2.37;100.00;101398.31;4961993;28;20058;-56
2023/12/30 02:02:32;;;;;;;24.83;22.92;;;;;;;2.73;100.00;101399.44;4957744;28;20055;-63
2023/12/30 02:04:59;;;;;;;25.30;23.40;;;;;;;3.13;100.00;101398.44;4956973;28;20054;-57
2023/12/30 02:07:26;;;;;;;23.63;21.83;;;;;;;2.52;100.00;101393.50;4957181;28;20410;-63
2023/12/30 02:09:53;;;;;;;23.67;21.77;;;;;;;1.92;100.00;101390.06;4960771;28;20051;-63
2023/12/30 02:12:21;;;;;;;24.98;23.08;;;;;;;1.84;100.00;101393.34;4962608;28;20544;-63
2023/12/30 02:14:50;;;;;;;26.17;24.20;;;;;;;2.12;100.00;101388.31;4958509;28;20077;-58
2023/12/30 02:17:19;;;;;;;24.50;22.67;;;;;;;1.90;100.00;101390.19;4959714;28;20054;-58
2023/12/30 02:19:46;;;;;;;25.48;23.48;;;;;;;2.29;100.00;101395.53;4961328;28;20117;-57
2023/12/30 02:22:15;;;;;;;23.70;21.80;;;;;;;2.05;100.00;101393.28;4959746;28;20496;-57
2023/12/30 02:24:43;;;;;;;24.45;22.65;;;;;;;2.22;100.00;101391.81;4963678;28;21041;-58
2023/12/30 02:27:09;;;;;;;24.27;22.48;;;;;;;1.98;100.00;101384.28;4960604;28;20051;-57
2023/12/30 02:29:36;;;;;;;23.77;22.08;;;;;;;2.00;100.00;101385.81;4967029;28;20501;-57
2023/12/30 02:32:03;;;;;;;24.30;22.58;;;;;;;2.60;100.00;101391.00;4958414;28;20066;-57
2023/12/30 02:34:30;;;;;;;34.75;31.65;;;;;;;2.75;100.00;101392.28;4960272;28;20793;-62
2023/12/30 02:36:57;;;;;;;43.60;30.40;;;;;;;2.42;100.00;101388.25;4961894;28;20066;-63
2023/12/30 02:39:24;;;;;;;32.65;29.58;;;;;;;2.54;100.00;101386.31;4959193;28;20054;-62
2023/12/30 02:41:53;;;;;;;29.92;26.90;;;;;;;2.41;100.00;101391.00;4967855;28;20051;-57
2023/12/30 02:44:21;;;;;;;28.88;26.67;;;;;;;2.05;100.00;101390.66;4960931;28;20436;-58
2023/12/30 02:46:48;;;;;;;25.38;23.48;;;;;;;1.73;100.00;101388.22;4959480;28;20700;-58
2023/12/30 02:49:13;;;;;;;24.02;22.15;;;;;;;1.90;100.00;101389.38;4965878;28;20051;-57
2023/12/30 02:51:40;;;;;;;25.33;23.52;;;;;;;2.12;100.00;101391.78;4961157;28;20061;-59
2023/12/30 02:54:09;;;;;;;23.80;22.00;;;;;;;1.74;100.00;101382.00;4963752;28;20054;-57
2023/12/30 02:56:39;;;;;;;25.60;23.70;;;;;;;1.74;100.00;101380.22;4961585;28;20062;-57
2023/12/30 02:59:07;;;;;;;24.63;22.83;;;;;;;2.05;100.00;101386.22;4959600;28;20043;-60
2023/12/30 03:01:34;;;;;;;24.00;22.05;;;;;;;2.05;100.00;101377.53;4961443;28;20055;-57
2023/12/30 03:04:01;;;;;;;25.48;23.38;;;;;;;1.99;100.00;101383.31;4965226;28;20055;-57
2023/12/30 03:06:29;;;;;;;24.08;22.17;;;;;;;2.02;100.00;101375.19;4960169;28;20476;-62
2023/12/30 03:08:55;;;;;;;23.88;22.10;;;;;;;1.93;100.00;101379.44;4962477;28;20059;-59
2023/12/30 03:11:25;;;;;;;28.00;26.00;;;;;;;2.40;100.00;101382.31;4962487;28;20071;-63
2023/12/30 03:13:52;;;;;;;28.42;26.33;;;;;;;2.86;100.00;101375.56;4965199;28;20061;-63
2023/12/30 03:16:21;;;;;;;25.55;23.65;;;;;;;2.36;100.00;101366.97;4957248;28;20051;-63
2023/12/30 03:18:47;;;;;;;27.90;25.65;;;;;;;2.65;100.00;101375.69;4961719;28;20560;-62
2023/12/30 03:21:17;;;;;;;28.02;26.02;;;;;;;2.30;100.00;101371.00;4960854;28;20054;-64
2023/12/30 03:23:44;;;;;;;25.58;23.67;;;;;;;2.46;100.00;101375.69;4961839;28;20063;-57
2023/12/30 03:26:11;;;;;;;24.90;23.00;;;;;;;2.50;100.00;101383.13;4961352;28;20066;-57
2023/12/30 03:28:38;;;;;;;26.73;24.83;;;;;;;2.36;100.00;101385.31;4957782;28;20397;-58
2023/12/30 03:31:06;;;;;;;25.40;23.50;;;;;;;2.66;100.00;101397.50;4968535;28;20047;-64
2023/12/30 03:33:34;;;;;;;25.15;23.35;;;;;;;2.80;100.00;101402.34;4964944;28;20086;-64
2023/12/30 03:36:01;;;;;;;25.55;23.42;;;;;;;3.11;100.00;101396.94;4967315;28;20182;-61
2023/12/30 03:38:28;;;;;;;25.80;24.00;;;;;;;3.10;100.00;101398.72;4958798;28;20520;-57
2023/12/30 03:40:57;;;;;;;26.50;24.50;;;;;;;2.34;100.00;101395.16;4961719;28;20047;-57
2023/12/30 03:43:23;;;;;;;25.20;23.50;;;;;;;2.39;100.00;101395.53;4962610;28;20094;-57
2023/12/30 03:45:50;;;;;;;28.77;26.75;;;;;;;2.48;100.00;101389.47;4960395;28;20055;-57
2023/12/30 03:48:17;;;;;;;26.15;24.25;;;;;;;2.79;100.00;101392.00;4961015;28;20059;-64
2023/12/30 03:50:46;;;;;;;26.23;24.33;;;;;;;2.75;100.00;101392.28;4961724;28;20051;-63
2023/12/30 03:53:12;;;;;;;27.52;25.63;;;;;;;2.65;100.00;101393.22;4961874;28;20065;-64
2023/12/30 03:55:39;;;;;;;27.58;25.67;;;;;;;2.54;100.00;101394.19;4968508;28;20528;-63
2023/12/30 03:58:06;;;;;;;25.63;23.75;;;;;;;2.38;100.00;101391.28;4954911;28;20461;-63
2023/12/30 04:00:33;;;;;;;23.77;22.08;;;;;;;2.38;100.00;101394.72;4960501;28;20054;-57
2023/12/30 04:02:59;;;;;;;24.35;22.55;;;;;;;2.46;100.00;101397.50;4962253;28;20054;-57
2023/12/30 04:05:26;;;;;;;27.30;25.33;;;;;;;2.60;100.00;101400.69;4961560;28;20538;-57
2023/12/30 04:07:54;;;;;;;31.80;29.50;;;;;;;3.55;100.00;101399.88;4960097;28;20051;-57
2023/12/30 04:10:21;;;;;;;25.42;23.52;;;;;;;2.84;100.00;101397.63;4957416;28;20059;-57
2023/12/30 04:12:48;;;;;;;25.00;23.10;;;;;;;2.61;100.00;101399.72;4961518;28;20062;-58
2023/12/30 04:15:17;;;;;;;28.40;26.40;;;;;;;2.40;100.00;101394.59;4962497;28;20695;-57
2023/12/30 04:17:44;;;;;;;24.70;22.90;;;;;;;2.66;100.00;101402.75;4959692;28;20115;-58
2023/12/30 04:20:11;;;;;;;23.90;22.10;;;;;;;2.51;100.00;101402.31;4956117;28;20093;-57
2023/12/30 04:22:39;;;;;;;25.08;23.17;;;;;;;2.29;100.00;101406.84;4960161;28;20059;-57
2023/12/30 04:25:08;;;;;;;24.45;22.65;;;;;;;1.91;100.00;101412.00;4965736;28;20058;-57
2023/12/30 04:27:35;;;;;;;22.38;20.75;;;;;;;1.77;100.00;101405.31;4961973;28;20054;-57
2023/12/30 04:30:02;;;;;;;23.20;21.40;;;;;;;1.79;100.00;101411.25;4961277;28;20053;-57
2023/12/30 04:32:28;;;;;;;22.80;21.10;;;;;;;1.75;100.00;101410.66;4968947;28;20453;-57
2023/12/30 04:34:55;;;;;;;22.10;20.50;;;;;;;1.80;100.00;101418.97;4958858;28;20055;-57
2023/12/30 04:37:22;;;;;;;23.40;21.80;;;;;;;1.69;100.00;101405.97;4957159;28;20453;-57
2023/12/30 04:39:49;;;;;;;26.35;24.45;;;;;;;1.58;100.00;101406.06;4957122;28;20059;-57
2023/12/30 04:42:17;;;;;;;24.67;22.85;;;;;;;1.40;100.00;101405.00;4966550;28;20055;-57
2023/12/30 04:44:44;;;;;;;22.90;21.30;;;;;;;1.28;100.00;101409.47;4959416;28;20061;-57
2023/12/30 04:47:11;;;;;;;21.98;20.38;;;;;;;1.33;100.00;101408.13;4958588;28;20050;-57
2023/12/30 04:49:37;;;;;;;28.30;26.02;;;;;;;1.07;100.00;101404.25;4957708;28;20065;-57
2023/12/30 04:52:05;;;;;;;25.95;23.98;;;;;;;1.58;100.00;101404.28;4962171;28;20500;-57
2023/12/30 04:54:31;;;;;;;24.55;22.75;;;;;;;1.58;100.00;101398.22;4962657;28;20523;-64
2023/12/30 04:56:58;;;;;;;23.38;21.58;;;;;;;1.55;100.00;101407.16;4963091;28;20307;-57
2023/12/30 04:59:27;;;;;;;22.10;20.50;;;;;;;1.52;100.00;101407.41;4956308;28;20058;-62
2023/12/30 05:01:54;;;;;;;23.30;21.60;;;;;;;1.47;100.00;101406.97;4953430;28;20117;-57
2023/12/30 05:04:21;;;;;;;24.73;22.98;;;;;;;1.25;100.00;101407.94;4959849;28;20059;-57
2023/12/30 05:06:48;;;;;;;25.88;24.02;;;;;;;1.21;100.00;101403.94;4962930;28;20055;-57
2023/12/30 05:09:15;;;;;;;23.40;21.70;;;;;;;1.13;100.00;101406.34;4955170;28;20497;-57
2023/12/30 05:11:47;;;;;;;30.23;27.83;;;;;;;1.27;100.00;101397.34;4967525;28;20051;-57
2023/12/30 05:14:15;;;;;;;23.20;21.60;;;;;;;1.37;100.00;101401.69;4961371;28;20109;-57
2023/12/30 05:16:45;;;;;;;26.77;25.00;;;;;;;1.55;100.00;101394.06;4955108;28;20047;-57
2023/12/30 05:19:12;;;;;;;29.10;27.10;;;;;;;1.65;100.00;101393.28;4958905;28;20047;-57
2023/12/30 05:21:40;;;;;;;23.70;22.00;;;;;;;1.90;100.00;101403.28;4958621;28;20063;-57
2023/12/30 05:24:07;;;;;;;23.65;21.95;;;;;;;1.75;100.00;101402.00;4958717;28;20055;-58
2023/12/30 05:26:34;;;;;;;25.30;23.70;;;;;;;1.74;100.00;101402.97;4967331;28;20055;-57
2023/12/30 05:29:01;;;;;;;22.88;21.27;;;;;;;1.84;100.00;101412.50;4960239;28;20051;-57
2023/12/30 05:31:26;;;;;;;23.30;21.48;;;;;;;1.89;100.00;101409.50;4959804;28;20406;-57
2023/12/30 05:33:55;;;;;;;21.63;20.13;;;;;;;1.80;100.00;101405.06;4957963;28;20061;-57
2023/12/30 05:36:21;;;;;;;23.95;22.45;;;;;;;1.81;100.00;101404.91;4962572;28;20077;-58
2023/12/30 05:38:51;;;;;;;25.10;23.50;;;;;;;1.76;100.00;101412.34;4958071;28;20054;-58
2023/12/30 05:41:18;;;;;;;24.60;22.88;;;;;;;1.79;100.00;101414.72;4960903;28;20500;-58
2023/12/30 05:43:45;;;;;;;22.10;20.65;;;;;;;1.11;100.00;101416.09;4958310;28;20055;-58
2023/12/30 05:46:16;;;;;;;23.95;22.35;;;;;;;0.89;100.00;101417.06;4961155;28;20093;-57
2023/12/30 05:48:43;;;;;;;23.98;22.48;;;;;;;0.87;100.00;101416.34;4958194;28;20164;-58
2023/12/30 05:51:12;;;;;;;23.95;22.25;;;;;;;1.19;100.00;101424.16;4957568;28;20505;-57
2023/12/30 05:53:40;;;;;;;24.30;22.70;;;;;;;1.26;100.00;101421.84;4960003;28;20074;-57
2023/12/30 05:56:07;;;;;;;24.83;23.23;;;;;;;0.85;100.00;101420.88;4963075;28;20440;-57
2023/12/30 05:58:35;;;;;;;23.58;22.17;;;;;;;0.97;100.00;101416.41;4954944;28;20382;-57
2023/12/30 06:01:02;;;;;;;22.10;20.70;;;;;;;0.87;100.00;101422.38;4961053;28;20047;-57
2023/12/30 06:03:29;;;;;;;22.85;21.35;;;;;;;1.04;100.00;101421.03;4958065;28;20777;-58
2023/12/30 06:05:55;;;;;;;25.02;23.42;;;;;;;1.16;100.00;101416.56;4956552;28;20065;-58
2023/12/30 06:08:24;;;;;;;23.20;21.70;;;;;;;1.24;100.00;101421.13;4959426;28;20520;-57
2023/12/30 06:10:53;;;;;;;22.40;20.90;;;;;;;1.49;100.00;101418.16;4959946;28;20537;-59
2023/12/30 06:13:20;;;;;;;22.48;20.98;;;;;;;1.75;100.00;101415.09;4955029;28;20416;-58
2023/12/30 06:15:51;;;;;;;25.42;23.80;;;;;;;1.77;100.00;101415.78;4957863;28;20046;-58
2023/12/30 06:18:18;;;;;;;24.45;21.98;;;;;;;1.73;100.00;101415.22;4960247;28;20054;-57
2023/12/30 06:20:46;;;;;;;22.88;21.38;;;;;;;2.28;100.00;101415.69;4955476;28;20066;-58
2023/12/30 06:23:13;;;;;;;23.23;21.63;;;;;;;2.19;100.00;101413.03;4960113;28;20468;-57
2023/12/30 06:25:42;;;;;;;24.85;23.15;;;;;;;2.33;100.00;101412.66;4962339;28;20073;-57
2023/12/30 06:28:09;;;;;;;23.67;22.08;;;;;;;2.66;100.00;101415.88;4958614;28;20728;-57
2023/12/30 06:30:36;;;;;;;22.73;21.23;;;;;;;2.44;100.00;101415.16;4960060;28;20051;-58
2023/12/30 06:33:06;;;;;;;23.10;21.50;;;;;;;2.76;100.00;101414.09;4965014;28;20042;-57
2023/12/30 06:35:34;;;;;;;24.83;23.13;;;;;;;3.22;100.00;101413.34;4957950;28;20146;-57
2023/12/30 06:38:01;;;;;;;26.40;24.58;;;;;;;3.69;100.00;101425.66;4957388;28;20105;-58
2023/12/30 06:40:28;;;;;;;25.33;23.40;;;;;;;3.28;100.00;101425.09;4958775;28;20059;-57
2023/12/30 06:42:56;;;;;;;27.25;25.15;;;;;;;3.58;100.00;101428.50;4953774;28;20422;-57
2023/12/30 06:45:23;;;;;;;31.70;29.33;;;;;;;3.86;100.00;101435.44;4958676;28;20058;-57
2023/12/30 06:47:50;;;;;;;27.52;25.50;;;;;;;4.23;100.00;101426.69;4957169;28;20480;-58
2023/12/30 06:50:19;;;;;;;38.03;26.80;;;;;;;4.20;100.00;101432.22;4957756;28;20052;-57
2023/12/30 06:52:46;;;;;;;28.92;26.92;;;;;;;4.47;100.00;101433.19;4958055;28;20055;-57
2023/12/30 06:55:14;;;;;;;29.83;27.35;;;;;;;4.28;100.00;101432.34;4964135;28;20050;-58
2023/12/30 06:57:42;;;;;;;27.98;25.95;;;;;;;4.84;100.00;101430.41;4955387;28;20493;-58
2023/12/30 07:00:09;;;;;;;27.13;25.13;;;;;;;4.92;100.00;101440.22;4958997;28;20054;-58
2023/12/30 07:02:36;;;;;;;26.75;24.85;;;;;;;5.21;100.00;101440.78;4958055;28;20504;-58
2023/12/30 07:05:03;;;;;;;26.73;24.73;;;;;;;5.65;100.00;101445.19;4962770;28;20070;-58
2023/12/30 07:07:30;;;;;;;26.35;24.42;;;;;;;5.91;100.00;101432.00;4960207;28;20440;-58
2023/12/30 07:09:57;;;;;;;27.98;25.80;;;;;;;5.90;100.00;101430.31;4962440;28;20043;-58
2023/12/30 07:12:24;;;;;;;26.88;24.98;;;;;;;6.29;100.00;101430.66;4962309;28;20055;-57
2023/12/30 07:14:51;;;;;;;26.10;24.20;;;;;;;6.74;100.00;101433.91;4960745;28;20054;-58
2023/12/30 07:17:19;;;;;;;27.08;25.08;;;;;;;6.98;100.00;101433.09;4960234;28;20051;-58
2023/12/30 07:19:47;;;;;;;28.10;26.10;;;;;;;7.19;100.00;101432.59;4964279;28;20055;-58
2023/12/30 07:22:15;;;;;;;25.90;24.10;;;;;;;7.60;100.00;101430.75;4959027;28;20138;-57
2023/12/30 07:24:41;;;;;;;27.42;24.35;;;;;;;7.66;100.00;101431.88;4963864;28;20125;-55
2023/12/30 07:27:08;;;;;;;27.77;25.67;;;;;;;7.79;100.00;101438.28;4967593;28;20501;-56
2023/12/30 07:29:35;;;;;;;28.27;26.20;;;;;;;7.63;100.00;101432.22;4962705;28;20050;-57
2023/12/30 07:32:02;;;;;;;24.17;22.38;;;;;;;8.11;100.00;101433.88;4963102;28;20055;-56
2023/12/30 07:34:30;;;;;;;27.85;25.85;;;;;;;8.24;100.00;101428.84;4956185;28;20054;-56
2023/12/30 07:37:01;;;;;;;27.25;25.23;;;;;;;8.46;100.00;101434.38;4961741;28;20059;-56
2023/12/30 07:39:28;;;;;;;27.45;25.20;;;;;;;8.53;100.00;101432.69;4957525;28;20430;-56
2023/12/30 07:41:55;;;;;;;27.30;25.10;;;;;;;8.79;100.00;101436.81;4966925;28;21212;-56
2023/12/30 07:44:21;;;;;;;28.23;26.23;;;;;;;9.22;100.00;101437.97;4962088;28;20058;-56
2023/12/30 07:46:49;;;;;;;26.73;24.83;;;;;;;9.02;100.00;101440.31;4962798;28;20051;-56
2023/12/30 07:49:17;;;;;;;23.90;22.23;;;;;;;8.97;100.00;101437.34;4956460;28;20051;-57
2023/12/30 07:51:45;;;;;;;22.90;21.10;;;;;;;8.64;100.00;101442.88;4956936;28;20132;-56
2023/12/30 07:54:13;;;;;;;27.65;25.80;;;;;;;9.31;100.00;101444.03;4964286;28;20505;-57
2023/12/30 07:56:40;;;;;;;25.38;23.88;;;;;;;9.43;100.00;101429.31;4963524;28;20106;-57
2023/12/30 07:59:06;;;;;;;24.25;22.75;;;;;;;9.37;100.00;101438.81;4954430;28;20498;-56
2023/12/30 08:01:33;;;;;;;20.58;19.17;;;;;;;9.84;100.00;101442.97;4959953;28;20063;-56
2023/12/30 08:04:00;;;;;;;22.17;20.40;;;;;;;9.53;100.00;101445.81;4962158;28;20058;-56
2023/12/30 08:06:27;;;;;;;22.92;21.23;;;;;;;9.98;100.00;101451.13;4960642;28;20074;-57
2023/12/30 08:08:55;;;;;;;23.45;21.85;;;;;;;9.98;100.00;101451.94;4959856;28;20066;-56
2023/12/30 08:11:22;;;;;;;21.85;20.35;;;;;;;11.03;100.00;101455.19;4963423;28;20054;-56
2023/12/30 08:13:49;;;;;;;24.40;22.70;;;;;;;10.37;100.00;101457.97;4959218;28;20055;-57
2023/12/30 08:16:16;;;;;;;21.80;20.20;;;;;;;9.99;100.00;101466.06;4964649;28;20061;-57
2023/12/30 08:18:44;;;;;;;23.40;21.80;;;;;;;10.37;100.00;101466.75;4960212;28;20057;-56
2023/12/30 08:21:11;;;;;;;29.67;26.80;;;;;;;10.33;100.00;101457.53;4955700;28;20059;-57
2023/12/30 08:23:38;;;;;;;23.58;22.08;;;;;;;10.17;100.00;101463.84;4961171;28;20057;-56
2023/12/30 08:26:06;;;;;;;22.05;20.55;;;;;;;9.91;100.00;101464.31;4968129;28;20113;-56
2023/12/30 08:28:33;;;;;;;23.88;22.17;;;;;;;10.25;100.00;101457.59;4960568;28;20047;-57
2023/12/30 08:31:02;;;;;;;25.48;23.67;;;;;;;11.02;100.00;101458.88;4962438;28;20495;-56
2023/12/30 08:33:28;;;;;;;24.52;22.83;;;;;;;10.82;100.00;101461.31;4963301;28;20066;-56
2023/12/30 08:35:55;;;;;;;24.92;23.15;;;;;;;11.44;100.00;101463.31;4950632;28;20058;-56
2023/12/30 08:38:22;;;;;;;21.92;20.33;;;;;;;11.74;100.00;101471.91;4957452;28;20047;-57
2023/12/30 08:40:49;;;;;;;27.13;25.23;;;;;;;11.38;100.00;101469.41;4955217;28;20086;-57
2023/12/30 08:43:19;;;;;;;25.17;23.48;;;;;;;11.73;100.00;101472.91;4962927;28;20504;-57
2023/12/30 08:45:46;;;;;;;24.25;22.52;;;;;;;11.72;100.00;101471.28;4964960;28;20058;-57
2023/12/30 08:48:13;;;;;;;27.75;25.95;;;;;;;11.22;100.00;101465.16;4963276;28;20051;-56
2023/12/30 08:50:40;;;;;;;24.65;22.95;;;;;;;11.88;100.00;101468.31;4958691;28;20058;-57
2023/12/30 08:53:07;;;;;;;23.83;22.17;;;;;;;12.25;100.00;101460.09;4966383;28;20061;-61
2023/12/30 08:55:33;;;;;;;24.88;22.90;;;;;;;11.62;100.00;101460.97;4965917;28;20587;-62
2023/12/30 08:58:00;;;;;;;22.73;21.20;;;;;;;12.72;100.00;101445.09;4959488;28;20047;-57
2023/12/30 09:00:28;;;;;;;28.80;27.00;;;;;;;12.90;100.00;101439.97;4961635;28;20096;-56
2023/12/30 09:02:56;;;;;;;26.00;24.25;;;;;;;11.16;100.00;101442.00;4962826;28;20050;-57
2023/12/30 09:05:23;;;;;;;23.10;21.50;;;;;;;11.25;100.00;101443.50;4958655;28;20048;-57
2023/12/30 09:07:51;;;;;;;30.70;28.85;;;;;;;11.88;100.00;101451.53;4956134;28;20685;-57
2023/12/30 09:10:18;;;;;;;31.73;29.73;;;;;;;11.40;100.00;101432.78;4963355;28;20051;-56
2023/12/30 09:12:45;;;;;;;24.27;22.58;;;;;;;11.87;100.00;101433.94;4957289;28;20062;-56
2023/12/30 09:15:12;;;;;;;27.10;25.05;;;;;;;12.44;100.00;101423.91;4959351;28;20051;-56
2023/12/30 09:17:40;;;;;;;32.63;30.60;;;;;;;11.75;100.00;101422.16;4958394;28;20050;-57
2023/12/30 09:20:08;;;;;;;30.30;28.40;;;;;;;13.43;100.00;101424.00;4960523;28;20051;-57
2023/12/30 09:22:35;;;;;;;23.92;22.33;;;;;;;13.24;100.00;101416.81;4959269;28;20129;-57
2023/12/30 09:25:02;;;;;;;26.55;24.75;;;;;;;12.61;100.00;101422.50;4963368;28;20058;-57
2023/12/30 09:27:29;;;;;;;33.08;30.98;;;;;;;12.65;100.00;101414.91;4960428;28;20090;-57
2023/12/30 09:29:55;;;;;;;28.73;26.92;;;;;;;12.90;100.00;101418.66;4950052;28;20429;-56
2023/12/30 09:32:23;;;;;;;28.42;26.52;;;;;;;11.86;100.00;101414.47;4959721;28;20066;-57
2023/12/30 09:34:51;;;;;;;29.35;27.33;;;;;;;14.17;100.00;101401.38;4956889;28;20086;-57
2023/12/30 09:37:19;;;;;;;25.83;23.92;;;;;;;12.41;100.00;101392.34;4956584;28;20066;-57
2023/12/30 09:39:46;;;;;;;24.42;22.63;;;;;;;13.44;100.00;101400.81;4957406;28;20090;-57
2023/12/30 09:42:13;;;;;;;28.40;26.40;;;;;;;15.27;100.00;101403.72;4966168;28;20162;-57
2023/12/30 09:44:41;;;;;;;25.83;24.02;;;;;;;12.96;100.00;101396.50;4957932;28;20051;-57
2023/12/30 09:47:10;;;;;;;26.20;24.30;;;;;;;13.18;100.00;101396.28;4957100;28;20464;-57
2023/12/30 09:49:37;;;;;;;25.50;23.50;;;;;;;12.79;100.00;101395.25;4956189;28;20062;-56
2023/12/30 09:52:06;;;;;;;25.38;23.58;;;;;;;13.47;100.00;101395.06;4962561;28;20437;-57
2023/12/30 09:54:33;;;;;;;30.52;28.40;;;;;;;12.73;100.00;101393.41;4957625;28;20046;-57
2023/12/30 09:57:01;;;;;;;27.83;25.58;;;;;;;13.03;100.00;101391.97;4960623;28;20252;-57
2023/12/30 09:59:29;;;;;;;28.27;26.08;;;;;;;12.54;100.00;101389.69;4954769;28;20078;-56
2023/12/30 10:01:56;;;;;;;26.25;24.15;;;;;;;13.20;100.00;101396.91;4962444;28;20137;-57
2023/12/30 10:04:24;;;;;;;23.90;22.00;;;;;;;12.76;100.00;101390.34;4960342;28;20055;-57
2023/12/30 10:06:51;;;;;;;25.35;23.40;;;;;;;11.91;100.00;101384.59;4963467;28;20055;-57
2023/12/30 10:09:22;;;;;;;23.52;21.73;;;;;;;11.80;100.00;101395.75;4959059;28;20055;-56
2023/12/30 10:11:49;;;;;;;25.25;23.35;;;;;;;12.10;100.00;101375.88;4967946;28;20137;-57
2023/12/30 10:14:17;;;;;;;23.10;21.30;;;;;;;12.80;100.00;101389.75;4960285;28;20520;-62
2023/12/30 10:16:44;;;;;;;26.73;24.83;;;;;;;12.81;100.00;101385.22;4954256;28;20067;-57
2023/12/30 10:19:11;;;;;;;23.90;22.17;;;;;;;13.42;100.00;101392.19;4964494;28;20059;-57
2023/12/30 10:21:38;;;;;;;23.92;22.17;;;;;;;12.34;100.00;101385.16;4954620;28;20055;-56
2023/12/30 10:24:06;;;;;;;24.67;22.88;;;;;;;11.96;100.00;101384.00;4959581;28;20047;-56
2023/12/30 10:26:37;;;;;;;25.60;23.70;;;;;;;12.08;100.00;101382.41;4961765;28;20054;-57
2023/12/30 10:29:04;;;;;;;27.40;25.60;;;;;;;12.00;100.00;101380.72;4956810;28;20111;-56
2023/12/30 10:31:30;;;;;;;24.73;22.92;;;;;;;12.37;100.00;101371.44;4962580;28;20603;-57
2023/12/30 10:33:57;;;;;;;24.20;22.50;;;;;;;12.44;100.00;101375.97;4959933;28;20465;-62
2023/12/30 10:36:27;;;;;;;28.75;26.65;;;;;;;12.18;100.00;101374.03;4957847;28;20055;-57
2023/12/30 10:38:55;;;;;;;27.17;25.27;;;;;;;12.74;100.00;101374.56;4964460;28;20536;-57
2023/12/30 10:41:22;;;;;;;25.15;23.35;;;;;;;13.24;100.00;101371.47;4961443;28;20505;-56
2023/12/30 10:43:50;;;;;;;26.42;24.52;;;;;;;14.64;100.00;101361.88;4958657;28;20059;-57
2023/12/30 10:46:19;;;;;;;23.20;21.50;;;;;;;13.11;100.00;101360.81;4961346;28;20059;-56
2023/12/30 10:48:53;;;;;;;23.20;21.50;;;;;;;13.17;100.00;101360.81;4963358;28;20349;-57
2023/12/30 10:51:24;;;;;;;23.35;21.65;;;;;;;13.28;100.00;101362.88;4960208;28;20445;-56
2023/12/30 10:54:02;;;;;;;23.65;21.95;;;;;;;12.50;100.00;101353.84;4961191;28;20088;-57
2023/12/30 10:56:31;;;;;;;42.75;24.95;;;;;;;14.29;100.00;101350.78;4960932;28;20047;-57
2023/12/30 10:59:01;;;;;;;24.17;22.38;;;;;;;14.68;100.00;101351.56;4961290;28;20113;-56
2023/12/30 11:01:29;;;;;;;27.35;25.38;;;;;;;13.67;100.00;101344.28;4960905;28;20429;-57
2023/12/30 11:03:56;;;;;;;28.48;26.20;;;;;;;14.00;100.00;101338.81;4959125;28;20047;-57
2023/12/30 11:06:27;;;;;;;25.35;23.45;;;;;;;13.77;100.00;101339.34;4965166;28;20464;-57
2023/12/30 11:08:59;;;;;;;25.75;23.85;;;;;;;12.92;100.00;101343.78;4959678;28;20053;-57